Time;durP1;ratioP1;P1;durP2;ratioP2;P2;SDS_P1;SDS_P2;PMS_P1;PMS_P2;Temp;Humidity;BMP_temperature;BMP_pressure;BME280_temperature;BME280_humidity;BME280_pressure;Samples;Min_cycle;Max_cycle;Signal;HPM_P1;HPM_P2
2021/05/10 00:01:42;;;;;;;1.58;0.98;;;;;;;22.81;35.79;98412.81;5013038;28;20053;-86
2021/05/10 00:04:08;;;;;;;3.83;1.10;;;;;;;22.77;36.04;98413.22;5012720;28;20683;-85
2021/05/10 00:06:35;;;;;;;5.28;0.90;;;;;;;22.73;36.13;98417.31;5012490;28;20054;-86
2021/05/10 00:09:04;;;;;;;3.85;1.02;;;;;;;22.68;36.22;98414.41;5014854;28;20058;-86
2021/05/10 00:11:34;;;;;;;4.53;1.05;;;;;;;22.66;36.28;98413.81;5012406;28;20616;-86
2021/05/10 00:14:01;;;;;;;3.13;1.00;;;;;;;22.63;36.49;98411.50;5011572;28;20050;-86
2021/05/10 00:16:28;;;;;;;3.90;1.38;;;;;;;22.60;36.44;98419.94;5011742;28;20073;-86
2021/05/10 00:18:54;;;;;;;1.10;1.00;;;;;;;22.57;36.57;98420.38;5012745;28;20050;-85
2021/05/10 00:21:20;;;;;;;1.63;1.15;;;;;;;22.55;36.59;98419.72;5011791;28;20427;-86
2021/05/10 00:23:46;;;;;;;3.30;1.38;;;;;;;22.52;36.50;98419.06;5012574;28;20075;-86
2021/05/10 00:26:12;;;;;;;3.40;1.10;;;;;;;22.50;36.60;98426.47;5012813;28;20062;-86
2021/05/10 00:28:38;;;;;;;3.50;1.30;;;;;;;22.48;36.46;98425.00;5015260;28;20054;-86
2021/05/10 00:31:04;;;;;;;3.60;0.90;;;;;;;22.44;36.67;98424.59;5015587;28;20050;-85
2021/05/10 00:33:30;;;;;;;3.53;0.80;;;;;;;22.42;36.82;98425.81;5015747;28;20069;-86
2021/05/10 00:35:56;;;;;;;1.55;1.10;;;;;;;22.40;36.90;98434.06;5014544;28;20054;-86
2021/05/10 00:38:23;;;;;;;1.95;0.95;;;;;;;22.36;36.87;98428.25;5014498;28;20549;-85
2021/05/10 00:40:49;;;;;;;4.90;1.15;;;;;;;22.34;37.06;98435.66;5014162;28;20384;-85
2021/05/10 00:43:15;;;;;;;2.25;1.45;;;;;;;22.31;36.95;98421.84;5015559;28;20495;-86
2021/05/10 00:45:41;;;;;;;1.23;0.77;;;;;;;22.28;37.38;98400.78;5015920;28;20049;-86
2021/05/10 00:48:08;;;;;;;2.38;0.93;;;;;;;22.25;37.18;98412.72;5051105;28;20050;-85
2021/05/10 00:50:34;;;;;;;3.20;1.02;;;;;;;22.23;37.51;98402.19;5034814;28;20057;-85
2021/05/10 00:53:00;;;;;;;2.83;0.90;;;;;;;22.22;37.63;98405.06;5035881;28;20057;-86
2021/05/10 00:55:27;;;;;;;3.28;1.10;;;;;;;22.20;37.58;98416.00;5035359;28;20092;-85
2021/05/10 00:58:01;;;;;;;6.03;1.00;;;;;;;22.20;37.65;98417.84;5035045;28;20053;-85
2021/05/10 01:00:30;;;;;;;1.40;0.85;;;;;;;22.16;37.62;98408.56;5035714;28;20054;-86
2021/05/10 01:02:57;;;;;;;1.10;0.90;;;;;;;22.17;37.73;98408.38;5034224;28;20057;-85
2021/05/10 01:05:23;;;;;;;7.93;0.95;;;;;;;22.14;37.78;98406.06;5034947;28;20107;-86
2021/05/10 01:07:50;;;;;;;1.83;1.02;;;;;;;22.12;38.27;98405.41;5034266;28;20049;-85
2021/05/10 01:10:18;;;;;;;5.57;1.35;;;;;;;22.10;38.37;98405.59;5020791;28;20061;-85
2021/05/10 01:12:44;;;;;;;8.43;1.23;;;;;;;22.10;38.53;98405.59;5015351;28;20046;-86
2021/05/10 01:15:13;;;;;;;1.10;0.90;;;;;;;22.08;38.42;98405.00;5025603;28;20057;-86
2021/05/10 01:17:40;;;;;;;1.15;0.88;;;;;;;22.09;38.30;98406.66;5034873;28;20072;-86
2021/05/10 01:20:09;;;;;;;0.80;0.80;;;;;;;22.07;38.49;98410.53;5035177;28;20605;-86
2021/05/10 01:22:41;;;;;;;3.65;0.95;;;;;;;22.05;38.52;98405.38;5034986;28;20483;-86
2021/05/10 01:25:11;;;;;;;3.78;0.93;;;;;;;22.06;38.42;98403.53;5034824;28;20045;-86
2021/05/10 01:27:37;;;;;;;3.45;0.93;;;;;;;22.07;38.41;98399.81;5034912;28;20053;-85
2021/05/10 01:30:08;;;;;;;1.65;0.93;;;;;;;22.06;38.49;98406.22;5033677;28;20054;-86
2021/05/10 01:32:35;;;;;;;1.95;1.10;;;;;;;22.06;38.48;98412.41;5035210;28;20045;-86
2021/05/10 01:35:04;;;;;;;3.65;1.17;;;;;;;22.05;38.49;98412.59;5035071;28;20054;-84
2021/05/10 01:37:30;;;;;;;6.97;1.10;;;;;;;22.04;38.73;98409.09;5035463;28;20057;-86
2021/05/10 01:39:56;;;;;;;4.43;1.15;;;;;;;22.04;38.70;98409.09;5033523;28;20049;-86
2021/05/10 01:42:23;;;;;;;1.38;0.90;;;;;;;22.03;38.47;98401.25;5034458;28;20137;-85
2021/05/10 01:44:50;;;;;;;4.60;1.48;;;;;;;22.02;38.65;98407.63;5034632;28;20045;-86
2021/05/10 01:47:16;;;;;;;1.65;1.20;;;;;;;22.03;38.77;98410.13;5034510;28;20053;-87
2021/05/10 01:49:48;;;;;;;1.92;1.08;;;;;;;22.03;38.67;98406.59;5033022;28;20049;-87
2021/05/10 01:52:15;;;;;;;4.82;1.27;;;;;;;22.06;38.87;98401.69;5034487;28;20045;-86
2021/05/10 01:54:48;;;;;;;1.05;0.70;;;;;;;22.06;38.66;98399.03;5034731;28;20053;-86
2021/05/10 01:57:15;;;;;;;3.08;0.82;;;;;;;22.12;38.67;98406.25;5033261;28;20052;-87
2021/05/10 01:59:41;;;;;;;3.65;1.20;;;;;;;22.14;38.98;98406.06;5033388;28;20049;-87
2021/05/10 02:02:07;;;;;;;3.35;1.15;;;;;;;22.15;38.89;98402.34;5033139;28;20045;-87
2021/05/10 02:05:07;;;;;;;4.47;1.30;;;;;;;22.13;38.52;98407.09;5034121;28;20046;-87
2021/05/10 02:07:36;;;;;;;3.63;1.05;;;;;;;22.19;38.68;98397.41;5032920;28;20053;-87
2021/05/10 02:10:10;;;;;;;3.42;1.17;;;;;;;22.19;38.71;98403.63;5032452;28;20065;-86
2021/05/10 02:12:36;;;;;;;1.33;0.90;;;;;;;22.22;38.92;98405.06;5032674;28;20060;-87
2021/05/10 02:15:10;;;;;;;1.98;1.02;;;;;;;22.20;38.97;98399.09;5034126;28;20081;-87
2021/05/10 02:17:37;;;;;;;4.40;0.80;;;;;;;22.23;38.83;98398.69;5033968;28;20056;-87
2021/05/10 02:20:06;;;;;;;4.80;1.13;;;;;;;22.23;38.99;98396.84;5033967;28;20050;-87
2021/05/10 02:22:32;;;;;;;3.50;1.02;;;;;;;22.25;38.77;98380.56;5033755;28;20583;-86
2021/05/10 02:24:58;;;;;;;3.67;1.02;;;;;;;22.26;38.60;98384.91;5033799;28;20049;-86
2021/05/10 02:27:24;;;;;;;7.05;1.00;;;;;;;22.28;39.16;98382.84;5033667;28;20056;-86
2021/05/10 02:29:50;;;;;;;3.13;0.90;;;;;;;22.29;38.82;98383.66;5032274;28;20418;-86
2021/05/10 02:32:16;;;;;;;1.70;0.75;;;;;;;22.31;38.77;98373.59;5033752;28;20048;-86
2021/05/10 02:34:47;;;;;;;2.28;0.98;;;;;;;22.32;38.57;98383.28;5033227;28;20056;-87
2021/05/10 02:37:13;;;;;;;1.00;0.80;;;;;;;22.34;38.72;98375.84;5032811;28;20053;-87
2021/05/10 02:39:39;;;;;;;1.55;0.93;;;;;;;22.36;38.79;98381.84;5032616;28;20052;-87
2021/05/10 02:42:06;;;;;;;2.20;1.00;;;;;;;22.36;38.86;98371.94;5032369;28;20071;-87
2021/05/10 02:44:32;;;;;;;2.30;1.08;;;;;;;22.37;38.86;98381.66;5031931;28;20061;-87
2021/05/10 02:46:58;;;;;;;2.70;1.10;;;;;;;22.39;38.65;98389.50;5033465;28;20053;-87
2021/05/10 02:49:24;;;;;;;1.38;0.90;;;;;;;22.41;38.59;98397.34;5018189;28;20089;-87
2021/05/10 02:51:50;;;;;;;4.45;1.10;;;;;;;22.40;38.87;98375.06;5013498;28;20565;-87
2021/05/10 02:54:16;;;;;;;3.47;1.10;;;;;;;22.43;38.87;98387.25;5013333;28;20058;-87
2021/05/10 02:56:42;;;;;;;6.18;1.50;;;;;;;22.43;38.39;98384.56;5013750;28;20060;-86
2021/05/10 02:59:08;;;;;;;1.80;1.10;;;;;;;22.45;38.40;98391.38;5013373;28;20441;-87
2021/05/10 03:01:34;;;;;;;5.00;1.10;;;;;;;22.46;38.53;98374.28;5013020;28;20487;-87
2021/05/10 03:04:00;;;;;;;2.97;1.30;;;;;;;22.48;38.14;98366.88;5013577;28;20057;-86
2021/05/10 03:06:26;;;;;;;8.88;1.50;;;;;;;22.56;38.17;98368.56;5013327;28;20061;-87
2021/05/10 03:08:52;;;;;;;1.20;1.10;;;;;;;22.61;38.04;98359.94;5013410;28;20084;-87
2021/05/10 03:11:19;;;;;;;1.95;1.00;;;;;;;22.66;38.01;98360.16;5012907;28;20051;-86
2021/05/10 03:13:45;;;;;;;4.35;1.42;;;;;;;22.71;37.99;98356.84;5013415;28;20046;-86
2021/05/10 03:16:11;;;;;;;2.10;0.93;;;;;;;22.74;37.98;98346.56;5013017;28;20050;-87
2021/05/10 03:18:37;;;;;;;2.15;1.17;;;;;;;22.76;37.96;98336.44;5012932;28;20518;-87
2021/05/10 03:21:03;;;;;;;1.67;1.17;;;;;;;22.78;37.95;98334.41;5012921;28;20050;-86
2021/05/10 03:23:29;;;;;;;1.90;0.93;;;;;;;22.80;37.58;98341.41;5012056;28;20054;-86
2021/05/10 03:25:56;;;;;;;2.70;1.30;;;;;;;22.80;37.56;98333.38;5012678;28;20057;-87
2021/05/10 03:28:22;;;;;;;3.33;1.15;;;;;;;22.80;37.62;98330.69;5013241;28;20132;-86
2021/05/10 03:30:48;;;;;;;3.70;1.13;;;;;;;22.80;37.45;98336.88;5011666;28;20542;-86
2021/05/10 03:33:14;;;;;;;2.15;1.02;;;;;;;22.80;37.61;98328.00;5013212;28;20104;-86
2021/05/10 03:35:40;;;;;;;3.70;1.27;;;;;;;22.79;37.58;98335.22;5011928;28;20434;-87
2021/05/10 03:38:06;;;;;;;2.70;1.35;;;;;;;22.79;37.79;98324.50;5013575;28;20046;-87
2021/05/10 03:40:32;;;;;;;4.78;1.23;;;;;;;22.80;37.80;98336.88;5032880;28;20053;-86
2021/05/10 03:42:59;;;;;;;3.38;1.10;;;;;;;22.78;37.68;98333.56;5032309;28;20499;-87
2021/05/10 03:45:25;;;;;;;3.65;1.15;;;;;;;22.75;37.83;98324.06;5033098;28;20049;-86
2021/05/10 03:47:51;;;;;;;5.03;1.38;;;;;;;22.73;37.77;98320.75;5032496;28;20537;-87
2021/05/10 03:50:19;;;;;;;2.35;1.20;;;;;;;22.74;37.79;98321.59;5032738;28;20046;-86
2021/05/10 03:52:46;;;;;;;1.30;1.02;;;;;;;22.73;38.09;98328.00;5032744;28;20049;-87
2021/05/10 03:55:15;;;;;;;1.10;0.90;;;;;;;22.71;37.73;98319.31;5032619;28;20049;-87
2021/05/10 03:57:41;;;;;;;2.90;1.48;;;;;;;22.71;37.54;98322.81;5032846;28;20053;-86
2021/05/10 04:00:09;;;;;;;3.55;1.20;;;;;;;22.70;37.79;98331.06;5013347;28;20053;-86
2021/05/10 04:02:37;;;;;;;3.08;1.08;;;;;;;22.68;37.84;98315.19;5013818;28;20046;-87
2021/05/10 04:07:49;;;;;;;2.75;0.90;;;;;;;22.68;37.80;98327.78;5016730;28;20057;-86
2021/05/10 04:15:46;;;;;;;2.72;1.08;;;;;;;22.64;38.16;98327.34;5016483;28;20054;-86
2021/05/10 04:18:12;;;;;;;3.10;1.20;;;;;;;22.60;38.21;98329.59;5016320;28;20061;-87
2021/05/10 04:20:39;;;;;;;2.20;1.20;;;;;;;22.57;38.15;98343.41;5016779;28;20053;-86
2021/05/10 04:23:05;;;;;;;1.67;1.00;;;;;;;22.55;38.38;98323.19;5016223;28;20384;-87
2021/05/10 04:25:31;;;;;;;3.05;1.02;;;;;;;22.51;38.40;98318.19;5014671;28;20062;-87
2021/05/10 04:27:58;;;;;;;2.15;1.20;;;;;;;22.48;38.39;98328.50;5016151;28;20060;-87
2021/05/10 04:30:24;;;;;;;2.58;1.20;;;;;;;22.45;38.59;98328.88;5014797;28;20053;-87
2021/05/10 04:32:50;;;;;;;3.28;1.50;;;;;;;22.43;38.61;98330.94;5016247;28;20041;-87
2021/05/10 04:35:18;;;;;;;3.13;1.40;;;;;;;22.40;38.36;98329.50;5014699;28;20132;-87
2021/05/10 04:37:44;;;;;;;3.65;1.10;;;;;;;22.37;38.71;98333.41;5016008;28;20415;-86
2021/05/10 04:40:11;;;;;;;2.00;0.90;;;;;;;22.35;38.68;98329.28;5015841;28;20053;-87
2021/05/10 04:42:37;;;;;;;2.25;0.93;;;;;;;22.34;38.72;98332.97;5015716;28;20410;-87
2021/05/10 04:45:04;;;;;;;2.42;1.00;;;;;;;22.31;38.75;98334.19;5015619;28;20053;-86
2021/05/10 04:47:36;;;;;;;1.80;1.17;;;;;;;22.28;38.92;98339.13;5015639;28;20053;-87
2021/05/10 04:50:04;;;;;;;1.88;0.88;;;;;;;22.24;39.05;98328.81;5014555;28;20066;-87
2021/05/10 04:52:30;;;;;;;4.43;1.40;;;;;;;22.22;39.07;98338.91;5014189;28;20586;-87
2021/05/10 04:54:58;;;;;;;4.90;1.33;;;;;;;22.20;38.70;98345.50;5015667;28;20069;-87
2021/05/10 04:57:24;;;;;;;3.63;1.15;;;;;;;22.20;39.20;98346.31;5015531;28;20411;-87
2021/05/10 04:59:52;;;;;;;1.92;1.10;;;;;;;22.19;39.23;98344.66;5015193;28;20089;-86
2021/05/10 05:02:19;;;;;;;3.55;0.95;;;;;;;22.19;39.08;98350.03;5015167;28;20053;-87
2021/05/10 05:04:45;;;;;;;1.52;1.08;;;;;;;22.20;39.06;98351.66;5015396;28;20470;-87
2021/05/10 05:07:14;;;;;;;2.10;1.20;;;;;;;22.21;39.25;98350.63;5023123;28;20160;-86
2021/05/10 05:09:40;;;;;;;3.20;0.95;;;;;;;22.24;39.50;98354.78;5034738;28;20053;-86
2021/05/10 05:12:07;;;;;;;2.58;1.38;;;;;;;22.26;39.46;98356.25;5034568;28;20057;-87
2021/05/10 05:14:33;;;;;;;4.60;1.23;;;;;;;22.28;39.22;98357.91;5034531;28;20046;-86
2021/05/10 05:16:59;;;;;;;1.95;1.10;;;;;;;22.33;39.13;98358.13;5034551;28;20053;-87
2021/05/10 05:19:25;;;;;;;2.35;1.02;;;;;;;22.36;38.90;98352.38;5034737;28;20054;-87
2021/05/10 05:21:52;;;;;;;1.02;0.90;;;;;;;22.39;39.10;98354.66;5033826;28;20068;-86
2021/05/10 05:24:18;;;;;;;3.08;1.35;;;;;;;22.44;38.94;98359.41;5033254;28;20419;-86
2021/05/10 05:26:44;;;;;;;5.60;1.10;;;;;;;22.48;38.92;98369.53;5034798;28;20056;-87
2021/05/10 05:29:10;;;;;;;5.78;1.20;;;;;;;22.54;38.71;98367.09;5034633;28;20064;-86
2021/05/10 05:31:36;;;;;;;4.38;1.02;;;;;;;22.57;38.62;98364.06;5033155;28;20509;-86
2021/05/10 05:34:03;;;;;;;2.50;1.10;;;;;;;22.64;38.62;98391.69;5034321;28;20057;-86
2021/05/10 05:36:29;;;;;;;3.22;1.38;;;;;;;22.69;39.00;98372.34;5034862;28;20049;-86
2021/05/10 05:38:56;;;;;;;8.27;1.08;;;;;;;22.71;38.08;98381.84;5034341;28;20065;-87
2021/05/10 05:41:22;;;;;;;2.60;1.13;;;;;;;22.80;38.37;98384.34;5034317;28;20052;-86
2021/05/10 05:43:48;;;;;;;4.03;1.10;;;;;;;22.84;38.22;98391.75;5034442;28;20414;-86
2021/05/10 05:46:15;;;;;;;1.70;1.00;;;;;;;22.88;38.63;98390.34;5033524;28;20046;-86
2021/05/10 05:48:41;;;;;;;2.97;0.95;;;;;;;22.94;38.39;98388.72;5014408;28;20419;-87
2021/05/10 05:51:11;;;;;;;2.13;1.10;;;;;;;22.95;37.59;98382.31;5013258;28;20077;-86
2021/05/10 05:53:39;;;;;;;3.55;1.30;;;;;;;22.98;37.77;98395.31;5012016;28;20443;-86
2021/05/10 05:56:05;;;;;;;2.13;0.93;;;;;;;23.07;38.01;98401.34;5011456;28;20053;-86
2021/05/10 05:58:31;;;;;;;4.20;1.13;;;;;;;23.16;38.11;98399.28;5027293;28;20057;-86
2021/05/10 06:01:01;;;;;;;1.83;0.90;;;;;;;23.22;38.29;98395.81;5031261;28;20107;-86
2021/05/10 06:03:27;;;;;;;3.08;1.25;;;;;;;23.28;38.23;98403.03;5032767;28;20491;-86
2021/05/10 06:05:53;;;;;;;3.38;1.10;;;;;;;23.32;37.91;98403.44;5032163;28;20490;-86
2021/05/10 06:08:20;;;;;;;2.17;1.10;;;;;;;23.38;37.79;98404.53;5016374;28;20507;-87
2021/05/10 06:10:47;;;;;;;4.03;1.10;;;;;;;23.44;37.76;98427.88;5012857;28;20523;-86
2021/05/10 06:13:13;;;;;;;2.30;1.05;;;;;;;23.46;37.67;98425.81;5013038;28;20483;-86
2021/05/10 06:15:40;;;;;;;3.00;0.98;;;;;;;23.50;37.76;98432.41;5013185;28;20419;-86
2021/05/10 06:18:10;;;;;;;2.63;1.23;;;;;;;23.51;37.88;98422.53;5025497;28;20177;-86
2021/05/10 06:20:36;;;;;;;4.60;1.23;;;;;;;23.52;37.69;98432.22;5032665;28;20050;-86
2021/05/10 06:23:03;;;;;;;1.65;1.20;;;;;;;23.50;37.30;98447.69;5032269;28;20092;-86
2021/05/10 06:25:30;;;;;;;3.03;1.30;;;;;;;23.50;37.88;98448.53;5031813;28;20049;-86
2021/05/10 06:27:57;;;;;;;5.97;1.23;;;;;;;23.46;37.91;98449.13;5029825;28;20068;-86
2021/05/10 06:30:23;;;;;;;2.92;1.20;;;;;;;23.43;37.74;98458.44;5032387;28;20064;-86
2021/05/10 06:32:50;;;;;;;2.17;1.20;;;;;;;23.40;37.75;98450.81;5032393;28;20072;-85
2021/05/10 06:35:17;;;;;;;2.80;1.13;;;;;;;23.36;37.96;98452.25;5032904;28;20049;-85
2021/05/10 06:37:44;;;;;;;3.08;1.20;;;;;;;23.36;38.07;98465.66;5025657;28;20054;-86
2021/05/10 06:40:10;;;;;;;2.20;1.13;;;;;;;23.38;38.46;98464.44;5012446;28;20061;-86
2021/05/10 06:42:37;;;;;;;4.53;1.45;;;;;;;23.38;38.26;98472.47;5013774;28;20046;-86
2021/05/10 06:45:07;;;;;;;1.77;1.05;;;;;;;23.40;38.21;98462.34;5013418;28;20749;-86
2021/05/10 06:47:37;;;;;;;7.93;1.50;;;;;;;23.49;38.46;98464.84;5013491;28;20057;-85
2021/05/10 06:50:04;;;;;;;3.58;1.23;;;;;;;23.55;38.54;98482.84;5013677;28;20384;-85
2021/05/10 06:52:36;;;;;;;4.13;1.50;;;;;;;23.61;38.47;98457.00;5012046;28;20065;-85
2021/05/10 06:55:07;;;;;;;3.47;1.45;;;;;;;23.67;38.20;98464.25;5013203;28;20049;-86
2021/05/10 06:57:33;;;;;;;3.97;1.20;;;;;;;23.71;38.30;98480.78;5013424;28;20423;-85
2021/05/10 06:59:59;;;;;;;5.65;1.45;;;;;;;23.69;38.23;98468.41;5013104;28;20049;-86
2021/05/10 07:02:26;;;;;;;6.20;1.45;;;;;;;23.71;38.68;98489.69;5013020;28;20046;-86
2021/05/10 07:04:53;;;;;;;2.83;1.27;;;;;;;23.70;38.50;98471.91;5010787;28;20050;-86
2021/05/10 07:07:20;;;;;;;7.63;1.48;;;;;;;23.71;38.43;98483.47;5012399;28;20058;-85
2021/05/10 07:09:51;;;;;;;2.85;1.10;;;;;;;23.69;38.61;98475.63;5012187;28;20522;-86
2021/05/10 07:12:17;;;;;;;8.07;1.20;;;;;;;23.71;38.49;98478.94;5012237;28;20411;-85
2021/05/10 07:14:43;;;;;;;4.60;1.30;;;;;;;23.72;38.60;98485.13;5011941;28;20057;-86
2021/05/10 07:17:09;;;;;;;5.93;1.40;;;;;;;23.72;38.66;98474.38;5014970;28;20041;-86
2021/05/10 07:19:36;;;;;;;2.55;1.15;;;;;;;23.72;38.81;98477.91;5010765;28;20057;-86
2021/05/10 07:22:02;;;;;;;3.00;1.27;;;;;;;23.70;38.51;98479.97;5012071;28;20060;-86
2021/05/10 07:24:29;;;;;;;7.22;1.42;;;;;;;23.66;38.59;98489.47;5011976;28;20050;-86
2021/05/10 07:26:56;;;;;;;3.85;1.40;;;;;;;23.65;39.14;98485.13;5014772;28;20058;-86
2021/05/10 07:29:22;;;;;;;3.15;1.30;;;;;;;23.59;38.92;98477.88;5031302;28;20084;-86
2021/05/10 07:31:48;;;;;;;3.08;1.20;;;;;;;23.54;38.70;98481.16;5031853;28;20045;-86
2021/05/10 07:34:14;;;;;;;3.78;1.13;;;;;;;23.50;38.93;98498.72;5031694;28;20430;-86
2021/05/10 07:36:40;;;;;;;6.05;1.50;;;;;;;23.41;39.15;98482.00;5030665;28;20052;-85
2021/05/10 07:39:07;;;;;;;2.15;1.10;;;;;;;23.40;39.03;98507.19;5026689;28;20053;-87
2021/05/10 07:41:33;;;;;;;6.35;1.60;;;;;;;23.35;39.31;98490.84;5015659;28;20061;-86
2021/05/10 07:44:01;;;;;;;4.53;1.40;;;;;;;23.33;39.30;98496.41;5015627;28;20053;-86
2021/05/10 07:46:27;;;;;;;3.13;1.33;;;;;;;23.30;39.62;98492.25;5016215;28;20058;-86
2021/05/10 07:48:53;;;;;;;5.45;1.35;;;;;;;23.29;40.05;98492.47;5035480;28;20521;-86
2021/05/10 07:51:20;;;;;;;2.97;1.15;;;;;;;23.25;39.68;98477.78;5034707;28;20107;-86
2021/05/10 07:53:46;;;;;;;2.55;1.23;;;;;;;23.25;39.75;98483.16;5035430;28;20046;-86
2021/05/10 07:56:13;;;;;;;3.55;1.00;;;;;;;23.26;40.15;98495.53;5035372;28;20132;-86
2021/05/10 07:58:42;;;;;;;3.72;1.30;;;;;;;23.23;39.74;98486.03;5016477;28;20053;-86
2021/05/10 08:01:08;;;;;;;3.20;1.15;;;;;;;23.23;39.92;98496.78;5015492;28;20065;-86
2021/05/10 08:03:35;;;;;;;3.40;1.50;;;;;;;23.25;40.56;98499.25;5014271;28;20050;-85
2021/05/10 08:06:01;;;;;;;1.58;1.23;;;;;;;23.26;40.54;98480.28;5015712;28;20050;-86
2021/05/10 08:08:28;;;;;;;6.38;1.33;;;;;;;23.34;40.70;98486.50;5016496;28;20057;-86
2021/05/10 08:10:55;;;;;;;3.75;1.20;;;;;;;23.41;40.62;98476.63;5015397;28;20388;-86
2021/05/10 08:13:21;;;;;;;3.22;1.00;;;;;;;23.52;40.81;98475.19;5015215;28;20491;-86
2021/05/10 08:15:47;;;;;;;1.70;0.98;;;;;;;23.60;40.65;98474.16;5016007;28;20060;-86
2021/05/10 08:18:13;;;;;;;4.57;1.08;;;;;;;23.69;40.55;98489.88;5015415;28;20046;-86
2021/05/10 08:20:42;;;;;;;1.90;1.10;;;;;;;23.78;40.56;98503.94;5014040;28;20053;-86
2021/05/10 08:23:10;;;;;;;5.22;1.45;;;;;;;23.86;40.26;98499.41;5015755;28;20133;-86
2021/05/10 08:25:37;;;;;;;4.38;1.20;;;;;;;23.91;39.70;98516.56;5014989;28;20057;-86
2021/05/10 08:28:05;;;;;;;22.50;1.33;;;;;;;23.95;39.78;98514.28;5015264;28;20488;-85
2021/05/10 08:30:31;;;;;;;3.75;1.13;;;;;;;23.99;39.56;98525.47;5013631;28;20054;-86
2021/05/10 08:32:58;;;;;;;5.13;1.20;;;;;;;24.02;39.38;98531.25;5015239;28;20045;-86
2021/05/10 08:35:25;;;;;;;4.50;1.13;;;;;;;24.05;39.55;98521.94;5014664;28;20482;-86
2021/05/10 08:37:58;;;;;;;1.30;1.00;;;;;;;24.08;39.71;98527.72;5014694;28;20057;-86
2021/05/10 08:40:24;;;;;;;3.72;1.33;;;;;;;24.12;39.18;98538.94;5014797;28;20057;-86
2021/05/10 08:42:50;;;;;;;5.20;1.25;;;;;;;24.13;39.05;98535.22;5015620;28;20057;-86
2021/05/10 08:45:23;;;;;;;2.92;1.25;;;;;;;24.12;38.94;98541.63;5015422;28;20050;-86
2021/05/10 08:47:51;;;;;;;2.90;1.10;;;;;;;24.21;39.73;98526.13;5016404;28;20053;-86
2021/05/10 08:50:18;;;;;;;2.40;1.00;;;;;;;24.29;39.43;98514.34;5014260;28;20049;-86
2021/05/10 08:52:44;;;;;;;3.88;1.10;;;;;;;24.38;39.51;98525.69;5016660;28;20042;-86
2021/05/10 08:55:17;;;;;;;2.60;1.10;;;;;;;24.46;38.79;98522.78;5014536;28;20409;-86
2021/05/10 08:57:44;;;;;;;5.32;1.40;;;;;;;24.61;39.80;98522.56;5013792;28;20058;-85
2021/05/10 09:00:13;;;;;;;4.15;1.00;;;;;;;24.71;38.72;98540.97;5013196;28;20053;-86
2021/05/10 09:02:39;;;;;;;1.85;0.90;;;;;;;24.83;39.00;98539.28;5015452;28;20427;-86
2021/05/10 09:05:21;;;;;;;2.92;1.23;;;;;;;24.88;36.87;98537.84;5014148;28;20056;-86
2021/05/10 09:08:07;;;;;;;3.67;1.30;;;;;;;24.90;36.86;98557.31;5013013;28;20427;-86
2021/05/10 09:10:33;;;;;;;2.22;1.30;;;;;;;24.96;37.26;98543.81;5014143;28;20057;-86
2021/05/10 09:13:00;;;;;;;3.15;1.00;;;;;;;24.98;37.26;98543.63;5022991;28;20041;-86
2021/05/10 09:15:28;;;;;;;6.10;1.17;;;;;;;24.99;36.82;98550.66;5033918;28;20056;-86
2021/05/10 09:17:56;;;;;;;3.28;1.60;;;;;;;25.00;36.70;98554.97;5033626;28;20072;-86
2021/05/10 09:20:25;;;;;;;3.38;1.45;;;;;;;24.98;36.85;98554.38;5033696;28;20507;-86
2021/05/10 09:22:54;;;;;;;1.92;0.90;;;;;;;24.97;36.94;98558.13;5028313;28;20052;-86
2021/05/10 09:25:37;;;;;;;3.20;1.23;;;;;;;24.90;36.14;98570.75;5013755;28;20054;-86
2021/05/10 09:28:16;;;;;;;7.38;1.50;;;;;;;24.90;36.93;98574.28;5013782;28;20517;-86
2021/05/10 09:30:44;;;;;;;4.95;1.05;;;;;;;24.89;37.12;98583.38;5012435;28;20587;-86
2021/05/10 09:33:25;;;;;;;8.00;1.30;;;;;;;24.81;36.69;98573.66;5012625;28;20050;-86
2021/05/10 09:35:56;;;;;;;3.85;0.95;;;;;;;24.81;37.00;98587.09;5013561;28;20542;-86
2021/05/10 09:38:27;;;;;;;3.22;0.75;;;;;;;24.82;37.37;98585.25;5013792;28;20072;-86
2021/05/10 09:41:03;;;;;;;2.75;1.00;;;;;;;24.86;37.41;98581.13;5014110;28;20046;-86
2021/05/10 09:43:34;;;;;;;3.13;0.95;;;;;;;24.95;37.06;98570.94;5025876;28;20049;-86
2021/05/10 09:46:05;;;;;;;7.82;1.10;;;;;;;25.06;36.29;98573.00;5033244;28;20057;-86
2021/05/10 09:48:37;;;;;;;2.38;1.20;;;;;;;25.19;36.92;98609.81;5033221;28;20470;-86
2021/05/10 09:51:06;;;;;;;6.57;1.42;;;;;;;25.27;36.76;98633.00;5033669;28;20049;-85
2021/05/10 09:53:41;;;;;;;12.13;2.00;;;;;;;25.23;37.17;98664.09;5032741;28;20049;-86
2021/05/10 09:56:31;;;;;;;11.50;1.20;;;;;;;25.17;37.28;98684.59;5033269;28;20049;-86
2021/05/10 09:59:02;;;;;;;7.85;1.50;;;;;;;25.00;37.46;98668.03;5033215;28;20526;-87
2021/05/10 10:01:41;;;;;;;10.02;1.38;;;;;;;24.77;37.40;98696.19;5047930;28;20422;-86
2021/05/10 10:04:07;;;;;;;3.25;1.15;;;;;;;24.62;37.36;98668.69;5032302;28;20049;-85
2021/05/10 10:06:34;;;;;;;12.45;1.27;;;;;;;24.44;37.83;98667.41;5033439;28;20053;-86
2021/05/10 10:09:00;;;;;;;3.38;0.93;;;;;;;24.29;38.14;98667.63;5033671;28;20053;-86
2021/05/10 10:11:27;;;;;;;3.08;0.93;;;;;;;24.20;38.96;98675.03;5033094;28;20412;-86
2021/05/10 10:13:55;;;;;;;0.85;0.65;;;;;;;24.15;38.55;98688.25;5032566;28;20057;-86
2021/05/10 10:16:24;;;;;;;1.48;0.80;;;;;;;24.05;38.40;98694.81;5033390;28;20080;-85
2021/05/10 10:18:51;;;;;;;1.02;0.60;;;;;;;23.99;38.76;98698.31;5032820;28;20049;-86
2021/05/10 10:21:19;;;;;;;0.88;0.70;;;;;;;23.94;38.97;98706.16;5031156;28;20463;-86
2021/05/10 10:23:55;;;;;;;1.65;0.73;;;;;;;23.86;38.81;98719.75;5019421;28;20124;-86
2021/05/10 10:26:41;;;;;;;2.65;0.70;;;;;;;23.85;39.34;98715.41;5012549;28;20049;-86
2021/05/10 10:29:14;;;;;;;5.70;0.73;;;;;;;23.79;39.08;98730.47;5011745;28;20057;-85
2021/05/10 10:31:49;;;;;;;1.67;0.77;;;;;;;23.72;38.82;98727.75;5013822;28;20061;-85
2021/05/10 10:34:24;;;;;;;5.00;0.90;;;;;;;23.69;39.17;98737.03;5012865;28;20538;-86
2021/05/10 10:36:55;;;;;;;4.03;0.57;;;;;;;23.63;39.05;98739.69;5022417;28;20046;-86
2021/05/10 10:39:23;;;;;;;1.25;0.70;;;;;;;23.58;39.56;98753.72;5032529;28;20490;-86
2021/05/10 10:41:54;;;;;;;3.05;0.50;;;;;;;23.55;39.31;98752.25;5032451;28;20053;-86
2021/05/10 10:44:26;;;;;;;7.30;0.63;;;;;;;23.52;39.53;98767.94;5013427;28;20054;-86
2021/05/10 10:46:52;;;;;;;2.50;0.60;;;;;;;23.53;39.36;98767.75;5012585;28;20214;-86
2021/05/10 10:49:35;;;;;;;1.50;0.57;;;;;;;23.45;38.93;98756.31;5012229;28;20052;-86
2021/05/10 10:52:30;;;;;;;0.80;0.50;;;;;;;23.50;38.98;98769.97;5012967;28;20050;-86
2021/05/10 10:55:24;;;;;;;0.90;0.60;;;;;;;23.44;37.92;98760.88;5012040;28;20056;-86
2021/05/10 10:57:52;;;;;;;;;;;;;;;23.50;38.39;98780.72;5013184;28;20495;-86
2021/05/10 11:00:19;;;;;;;0.57;0.50;;;;;;;23.63;38.61;98785.38;5012606;28;19925;-86
2021/05/10 11:02:47;;;;;;;1.30;0.60;;;;;;;23.69;38.74;98782.72;5012368;28;20046;-85
2021/05/10 11:05:21;;;;;;;0.85;0.52;;;;;;;23.74;38.79;98787.47;5012207;28;20057;-86
2021/05/10 11:07:57;;;;;;;2.13;0.68;;;;;;;23.80;38.69;98780.50;5013562;28;20420;-85
2021/05/10 11:10:40;;;;;;;2.22;0.50;;;;;;;23.76;38.33;98784.59;5012984;28;20061;-86
2021/05/10 11:13:07;;;;;;;4.68;0.45;;;;;;;23.83;38.79;98790.84;5012347;28;20057;-86
2021/05/10 11:15:38;;;;;;;1.60;0.63;;;;;;;23.84;38.63;98791.69;5012146;28;20050;-87
2021/05/10 11:18:06;;;;;;;3.80;0.70;;;;;;;23.87;38.77;98785.91;5015777;28;20052;-86
2021/05/10 11:20:43;;;;;;;1.05;0.55;;;;;;;23.88;38.73;98785.72;5033274;28;20059;-87
2021/05/10 11:23:24;;;;;;;0.80;0.47;;;;;;;23.93;38.52;98791.31;5032003;28;20061;-86
2021/05/10 11:25:55;;;;;;;1.10;0.50;;;;;;;24.03;39.22;98807.06;5031700;28;20119;-86
2021/05/10 11:28:24;;;;;;;4.05;0.50;;;;;;;24.08;38.96;98793.88;5031184;28;20509;-86
2021/05/10 11:31:00;;;;;;;1.42;0.57;;;;;;;24.14;38.90;98804.91;5031529;28;20560;-86
2021/05/10 11:33:54;;;;;;;1.27;0.50;;;;;;;24.12;39.39;98799.72;5031960;28;20053;-86
2021/05/10 11:36:23;;;;;;;1.17;0.50;;;;;;;24.15;39.23;98796.59;5030418;28;20053;-87
2021/05/10 11:38:54;;;;;;;2.10;0.90;;;;;;;24.08;39.07;98801.94;5030075;28;20053;-86
2021/05/10 11:41:31;;;;;;;3.97;0.60;;;;;;;24.04;39.07;98806.03;5031310;28;20060;-87
2021/05/10 11:44:01;;;;;;;3.42;1.00;;;;;;;24.02;39.82;98816.19;5031639;28;20050;-86
2021/05/10 11:46:33;;;;;;;1.58;0.80;;;;;;;23.97;39.61;98821.31;5031432;28;20061;-87
2021/05/10 11:49:00;;;;;;;4.20;1.00;;;;;;;24.00;39.42;98823.59;5031159;28;20045;-87